Time;durP1;ratioP1;P1;durP2;ratioP2;P2;SDS_P1;SDS_P2;PMS_P1;PMS_P2;Temp;Humidity;BMP_temperature;BMP_pressure;BME280_temperature;BME280_humidity;BME280_pressure;Samples;Min_cycle;Max_cycle;Signal;HPM_P1;HPM_P2
2021/10/20 00:00:30;;;;;;;22.80;18.53;;;16.00;99.90;;;;;;4989506;28;20333;-67
2021/10/20 00:03:00;;;;;;;22.50;17.93;;;16.00;99.90;;;;;;4989776;28;20241;-66
2021/10/20 00:05:30;;;;;;;22.50;18.40;;;16.00;99.90;;;;;;4995592;28;20261;-67
2021/10/20 00:08:01;;;;;;;19.73;17.60;;;16.00;99.90;;;;;;4995778;28;20340;-66
2021/10/20 00:10:29;;;;;;;24.80;19.97;;;16.00;99.90;;;;;;4987896;28;20671;-67
2021/10/20 00:12:57;;;;;;;21.77;18.83;;;16.00;99.90;;;;;;4996619;28;20238;-67
2021/10/20 00:15:26;;;;;;;20.50;18.30;;;16.00;99.90;;;;;;4995485;28;20242;-66
2021/10/20 00:17:54;;;;;;;21.57;18.00;;;16.00;99.90;;;;;;4995871;28;20237;-67
2021/10/20 00:20:23;;;;;;;19.67;17.33;;;16.00;99.90;;;;;;4996160;28;20320;-67
2021/10/20 00:22:53;;;;;;;21.93;18.50;;;16.00;99.90;;;;;;4996798;28;20241;-67
2021/10/20 00:25:21;;;;;;;21.10;17.80;;;16.00;99.90;;;;;;4988779;28;20671;-67
2021/10/20 00:27:49;;;;;;;20.97;18.00;;;16.00;99.90;;;;;;4992451;28;20321;-67
2021/10/20 00:30:24;;;;;;;20.07;17.33;;;16.00;99.90;;;;;;4996838;28;20260;-67
2021/10/20 00:32:52;;;;;;;21.00;18.03;;;16.00;99.90;;;;;;4998191;28;20783;-67
2021/10/20 00:35:20;;;;;;;20.30;18.13;;;16.00;99.90;;;;;;4996015;28;20247;-67
2021/10/20 00:37:48;;;;;;;19.73;17.67;;;16.00;99.90;;;;;;4988005;28;20732;-66
2021/10/20 00:40:18;;;;;;;20.53;18.20;;;16.00;99.90;;;;;;4990746;28;20262;-66
2021/10/20 00:42:46;;;;;;;21.30;17.57;;;15.90;99.90;;;;;;4993792;28;20740;-66
2021/10/20 00:45:14;;;;;;;22.20;17.87;;;15.90;99.90;;;;;;4995070;28;20230;-66
2021/10/20 00:47:43;;;;;;;18.50;16.53;;;15.90;99.90;;;;;;4993598;28;20234;-67
2021/10/20 00:50:14;;;;;;;19.40;16.90;;;15.90;99.90;;;;;;4998567;28;20268;-67
2021/10/20 00:52:43;;;;;;;21.37;18.47;;;15.80;99.90;;;;;;4993863;28;20241;-66
2021/10/20 00:55:13;;;;;;;17.47;15.30;;;15.80;99.90;;;;;;4995512;28;20245;-66
2021/10/20 00:57:46;;;;;;;19.70;17.63;;;15.80;99.90;;;;;;4989064;28;20741;-66
2021/10/20 01:00:16;;;;;;;19.00;16.93;;;15.80;99.90;;;;;;4986012;28;20269;-67
2021/10/20 01:02:46;;;;;;;21.83;17.40;;;15.70;99.90;;;;;;4997042;28;20251;-67
2021/10/20 01:05:16;;;;;;;19.20;17.20;;;15.70;99.90;;;;;;4996837;28;20237;-67
2021/10/20 01:07:44;;;;;;;22.83;18.00;;;15.70;99.90;;;;;;4993424;28;20716;-67
2021/10/20 01:10:16;;;;;;;21.97;17.50;;;15.70;99.90;;;;;;4995898;28;20766;-67
2021/10/20 01:12:46;;;;;;;19.27;17.27;;;15.70;99.90;;;;;;4996681;28;20309;-67
2021/10/20 01:15:16;;;;;;;19.73;17.53;;;15.70;99.90;;;;;;4989660;28;21032;-67
2021/10/20 01:17:44;;;;;;;23.43;18.20;;;15.70;99.90;;;;;;4988754;28;20724;-67
2021/10/20 01:20:13;;;;;;;19.40;17.23;;;15.70;99.90;;;;;;4991830;28;20324;-67
2021/10/20 01:22:42;;;;;;;18.63;16.17;;;15.60;99.90;;;;;;4991009;28;20237;-67
2021/10/20 01:25:12;;;;;;;18.23;16.43;;;15.60;99.90;;;;;;4990577;28;20893;-67
2021/10/20 01:27:40;;;;;;;20.03;17.27;;;15.60;99.90;;;;;;5000316;28;20522;-66
2021/10/20 01:30:10;;;;;;;20.70;17.27;;;15.60;99.90;;;;;;4998150;28;20303;-67
2021/10/20 01:32:39;;;;;;;18.33;16.33;;;15.60;99.90;;;;;;4983228;28;20238;-67
2021/10/20 01:35:08;;;;;;;20.50;16.87;;;15.60;99.90;;;;;;4991118;28;20236;-67
2021/10/20 01:37:37;;;;;;;18.47;16.13;;;15.60;99.90;;;;;;4993638;28;20288;-67
2021/10/20 01:40:09;;;;;;;19.10;16.23;;;15.60;99.90;;;;;;4991607;28;20229;-67
2021/10/20 01:42:37;;;;;;;18.37;16.40;;;15.60;99.90;;;;;;4992507;28;20238;-67
2021/10/20 01:45:08;;;;;;;18.13;16.23;;;15.50;99.90;;;;;;4993271;28;20221;-67
2021/10/20 01:47:37;;;;;;;18.40;15.43;;;15.50;99.90;;;;;;4988159;28;20320;-66
2021/10/20 01:50:07;;;;;;;18.97;15.87;;;15.50;99.90;;;;;;4993170;28;20335;-66
2021/10/20 01:52:36;;;;;;;20.73;16.10;;;15.50;99.90;;;;;;4992864;28;20233;-67
2021/10/20 01:55:07;;;;;;;19.37;15.40;;;15.40;99.90;;;;;;4994403;28;20600;-67
2021/10/20 01:57:35;;;;;;;17.50;14.83;;;15.40;99.90;;;;;;4996112;28;20328;-68
2021/10/20 02:00:11;;;;;;;16.83;14.80;;;15.50;99.90;;;;;;4997842;28;20257;-67
2021/10/20 02:02:39;;;;;;;18.53;15.83;;;15.40;99.90;;;;;;4986260;28;20640;-67
2021/10/20 02:05:09;;;;;;;18.53;15.00;;;15.40;99.90;;;;;;4993558;28;20748;-67
2021/10/20 02:07:37;;;;;;;20.00;15.37;;;15.40;99.90;;;;;;4986816;28;20242;-67
2021/10/20 02:10:09;;;;;;;16.90;15.10;;;15.40;99.90;;;;;;4985614;28;20437;-67
2021/10/20 02:12:37;;;;;;;20.97;14.90;;;15.40;99.90;;;;;;4988398;28;20283;-67
2021/10/20 02:15:06;;;;;;;19.37;16.13;;;15.40;99.90;;;;;;4988809;28;20248;-67
2021/10/20 02:17:34;;;;;;;17.70;14.50;;;15.40;99.90;;;;;;4987237;28;20262;-67
2021/10/20 02:20:04;;;;;;;18.03;14.97;;;15.40;99.90;;;;;;4992201;28;20245;-67
2021/10/20 02:22:34;;;;;;;16.07;14.20;;;15.40;99.90;;;;;;4992005;28;20657;-66
2021/10/20 02:25:02;;;;;;;18.37;15.10;;;15.40;99.90;;;;;;4989861;28;20312;-67
2021/10/20 02:27:31;;;;;;;16.27;14.00;;;15.40;99.90;;;;;;4987163;28;20230;-66
2021/10/20 02:30:00;;;;;;;18.00;15.00;;;15.50;99.90;;;;;;4993584;28;20240;-67
2021/10/20 02:32:28;;;;;;;17.50;13.67;;;15.50;99.90;;;;;;4994645;28;20320;-66
2021/10/20 02:34:56;;;;;;;18.07;13.80;;;15.40;99.90;;;;;;4995161;28;20325;-66
2021/10/20 02:37:24;;;;;;;15.77;14.07;;;15.50;99.90;;;;;;4989495;28;20796;-66
2021/10/20 02:39:53;;;;;;;16.60;13.50;;;15.50;99.90;;;;;;4989166;28;20324;-67
2021/10/20 02:42:21;;;;;;;16.73;13.10;;;15.50;99.90;;;;;;4990291;28;20319;-67
2021/10/20 02:44:50;;;;;;;15.67;12.70;;;15.50;99.90;;;;;;4995846;28;20233;-66
2021/10/20 02:47:18;;;;;;;15.00;13.40;;;15.50;99.90;;;;;;4988854;28;20665;-67
2021/10/20 02:49:47;;;;;;;17.23;13.20;;;15.50;99.90;;;;;;4993945;28;20238;-66
2021/10/20 02:52:18;;;;;;;13.80;12.43;;;15.40;99.90;;;;;;4988578;28;20240;-67
2021/10/20 02:54:46;;;;;;;15.20;12.83;;;15.50;99.90;;;;;;4992431;28;20300;-67
2021/10/20 02:57:14;;;;;;;13.80;12.00;;;15.40;99.90;;;;;;4991804;28;20692;-67
2021/10/20 02:59:43;;;;;;;13.90;12.27;;;15.50;99.90;;;;;;4990811;28;20706;-67
2021/10/20 03:02:12;;;;;;;15.50;12.87;;;15.50;99.90;;;;;;4985850;28;20317;-67
2021/10/20 03:04:41;;;;;;;13.80;12.40;;;15.40;99.90;;;;;;4985759;28;20510;-67
2021/10/20 03:07:09;;;;;;;15.60;12.37;;;15.40;99.90;;;;;;4995225;28;20756;-67
2021/10/20 03:09:37;;;;;;;14.47;11.90;;;15.30;99.90;;;;;;4991297;28;20229;-67
2021/10/20 03:12:05;;;;;;;13.57;11.57;;;15.30;99.90;;;;;;4991382;28;20244;-67
2021/10/20 03:14:34;;;;;;;15.73;11.47;;;15.30;99.90;;;;;;4994091;28;20283;-67
2021/10/20 03:17:02;;;;;;;12.50;11.30;;;15.30;99.90;;;;;;4993313;28;20668;-67
2021/10/20 03:19:31;;;;;;;14.17;12.10;;;15.20;99.90;;;;;;4984278;28;20600;-67
2021/10/20 03:21:59;;;;;;;12.87;11.43;;;15.20;99.90;;;;;;4998127;28;20622;-67
2021/10/20 03:24:27;;;;;;;12.77;11.33;;;15.20;99.90;;;;;;4991964;28;20239;-67
2021/10/20 03:26:56;;;;;;;12.63;11.33;;;15.10;99.90;;;;;;5000494;28;20283;-67
2021/10/20 03:29:24;;;;;;;11.73;10.57;;;15.10;99.90;;;;;;4997454;28;20232;-67
2021/10/20 03:31:52;;;;;;;12.33;11.07;;;15.10;99.90;;;;;;5000577;28;20808;-67
2021/10/20 03:34:20;;;;;;;11.37;10.20;;;15.10;99.90;;;;;;4990896;28;20243;-67
2021/10/20 03:36:49;;;;;;;12.07;9.87;;;15.10;99.90;;;;;;4996500;28;21781;-67
2021/10/20 03:39:18;;;;;;;11.20;10.10;;;15.10;99.90;;;;;;4991991;28;20538;-66
2021/10/20 03:41:46;;;;;;;12.43;10.03;;;15.10;99.90;;;;;;4997495;28;20431;-67
2021/10/20 03:44:16;;;;;;;11.50;10.30;;;15.00;99.90;;;;;;4993648;28;20245;-67
2021/10/20 03:46:44;;;;;;;12.73;10.07;;;15.00;99.90;;;;;;4996757;28;20237;-67
2021/10/20 03:49:12;;;;;;;12.40;10.53;;;15.00;99.90;;;;;;4997217;28;20295;-67
2021/10/20 03:51:40;;;;;;;10.77;9.77;;;15.00;99.90;;;;;;4996735;28;20545;-66
2021/10/20 03:54:10;;;;;;;11.73;10.40;;;14.90;99.90;;;;;;4993703;28;20237;-67
2021/10/20 03:56:38;;;;;;;10.53;9.50;;;14.90;99.90;;;;;;4991739;28;20269;-67
2021/10/20 03:59:06;;;;;;;12.10;9.30;;;14.90;99.90;;;;;;4994483;28;20733;-67
2021/10/20 04:01:34;;;;;;;10.33;9.43;;;14.90;99.90;;;;;;4998417;28;20789;-67
2021/10/20 04:04:02;;;;;;;11.83;9.63;;;14.90;99.90;;;;;;4995461;28;20319;-67
2021/10/20 04:06:30;;;;;;;11.10;9.90;;;14.90;99.90;;;;;;4996734;28;20567;-67
2021/10/20 04:09:01;;;;;;;10.00;8.80;;;14.80;99.90;;;;;;4991078;28;20780;-67
2021/10/20 04:11:31;;;;;;;9.77;8.67;;;14.80;99.90;;;;;;5002144;28;20261;-67
2021/10/20 04:13:59;;;;;;;9.83;8.83;;;14.90;99.90;;;;;;5002815;28;20251;-67
2021/10/20 04:16:27;;;;;;;9.73;8.73;;;14.80;99.90;;;;;;4995686;28;20245;-67
2021/10/20 04:18:55;;;;;;;10.27;8.60;;;14.80;99.90;;;;;;4994361;28;20248;-67
2021/10/20 04:21:24;;;;;;;9.60;7.97;;;14.80;99.90;;;;;;4991548;28;20240;-67
2021/10/20 04:23:52;;;;;;;9.23;8.40;;;14.80;99.90;;;;;;4994712;28;20268;-67
2021/10/20 04:26:20;;;;;;;9.33;8.03;;;14.80;99.90;;;;;;4992212;28;20716;-67
2021/10/20 04:28:49;;;;;;;9.77;8.47;;;14.70;99.90;;;;;;4990255;28;20590;-67
2021/10/20 04:31:17;;;;;;;9.83;8.67;;;14.70;99.90;;;;;;4992673;28;20855;-67
2021/10/20 04:33:46;;;;;;;11.07;8.77;;;14.70;99.90;;;;;;4997151;28;20304;-67
2021/10/20 04:36:14;;;;;;;10.73;8.80;;;14.70;99.90;;;;;;4992978;28;20769;-67
2021/10/20 04:38:42;;;;;;;8.93;8.03;;;14.70;99.90;;;;;;4994259;28;20245;-67
2021/10/20 04:41:10;;;;;;;9.20;8.20;;;14.70;99.90;;;;;;4996335;28;20320;-67
2021/10/20 04:43:38;;;;;;;10.10;8.67;;;14.70;99.90;;;;;;4989157;28;20246;-67
2021/10/20 04:46:07;;;;;;;10.80;8.30;;;14.70;99.90;;;;;;4991697;28;20249;-67
2021/10/20 04:48:36;;;;;;;9.07;8.20;;;14.70;99.90;;;;;;4997230;28;20256;-67
2021/10/20 04:51:04;;;;;;;10.93;8.53;;;14.70;99.90;;;;;;4998661;28;20237;-67
2021/10/20 04:53:32;;;;;;;8.73;7.90;;;14.70;99.90;;;;;;4990034;28;20248;-67
2021/10/20 04:56:01;;;;;;;9.80;8.03;;;14.60;99.90;;;;;;4997244;28;20236;-67
2021/10/20 04:58:29;;;;;;;8.93;8.03;;;14.70;99.90;;;;;;4986760;28;20325;-67
2021/10/20 05:00:57;;;;;;;9.43;8.30;;;14.60;99.90;;;;;;4995254;28;20328;-67
2021/10/20 05:03:27;;;;;;;9.43;7.97;;;14.60;99.90;;;;;;4992411;28;20248;-68
2021/10/20 05:05:56;;;;;;;8.53;7.70;;;14.60;99.90;;;;;;4991511;28;20255;-67
2021/10/20 05:08:24;;;;;;;10.97;8.93;;;14.60;99.90;;;;;;4995001;28;20240;-67
2021/10/20 05:10:52;;;;;;;9.60;7.67;;;14.60;99.90;;;;;;4990850;28;20679;-67
2021/10/20 05:13:20;;;;;;;9.50;8.23;;;14.60;99.90;;;;;;4999581;28;20313;-67
2021/10/20 05:15:48;;;;;;;9.77;8.10;;;14.60;99.90;;;;;;4995951;28;20244;-67
2021/10/20 05:18:16;;;;;;;10.30;8.13;;;14.60;99.90;;;;;;4991666;28;20235;-67
2021/10/20 05:20:47;;;;;;;10.13;8.20;;;14.50;99.90;;;;;;4993303;28;20244;-68
2021/10/20 05:23:16;;;;;;;11.83;8.33;;;14.50;99.90;;;;;;4996954;28;20330;-67
2021/10/20 05:25:44;;;;;;;10.37;8.20;;;14.50;99.90;;;;;;4993242;28;20279;-67
2021/10/20 05:28:12;;;;;;;11.13;8.47;;;14.60;99.90;;;;;;4994412;28;20241;-68
2021/10/20 05:30:41;;;;;;;10.67;7.93;;;14.60;99.90;;;;;;4988105;28;20233;-67
2021/10/20 05:33:09;;;;;;;11.40;7.90;;;14.60;99.90;;;;;;4990720;28;20276;-67
2021/10/20 05:35:37;;;;;;;9.73;7.57;;;14.50;99.90;;;;;;4987221;28;20258;-68
2021/10/20 05:38:06;;;;;;;9.53;7.73;;;14.50;99.90;;;;;;4989748;28;20264;-67
2021/10/20 05:40:35;;;;;;;10.60;7.80;;;14.50;99.90;;;;;;4989744;28;20245;-67
2021/10/20 05:43:03;;;;;;;10.83;7.97;;;14.50;99.90;;;;;;4992622;28;20233;-67
2021/10/20 05:45:31;;;;;;;9.50;7.43;;;14.50;99.90;;;;;;4991953;28;20717;-67
2021/10/20 05:48:00;;;;;;;8.80;7.37;;;14.60;99.90;;;;;;4995192;28;20739;-67
2021/10/20 05:50:28;;;;;;;9.67;7.37;;;14.60;99.90;;;;;;4981834;28;20234;-67
2021/10/20 05:52:57;;;;;;;8.80;7.90;;;14.60;99.90;;;;;;4991636;28;20777;-67
2021/10/20 05:55:26;;;;;;;8.37;7.53;;;14.50;99.90;;;;;;4997153;28;20252;-68
2021/10/20 05:57:55;;;;;;;8.53;7.33;;;14.50;99.90;;;;;;4995519;28;20269;-67
2021/10/20 06:00:23;;;;;;;10.83;8.10;;;14.60;99.90;;;;;;4991532;28;20269;-67
2021/10/20 06:02:51;;;;;;;13.33;8.27;;;14.50;99.90;;;;;;4989804;28;20245;-67
2021/10/20 06:05:19;;;;;;;10.37;8.53;;;14.50;99.90;;;;;;4997872;28;22979;-67
2021/10/20 06:07:47;;;;;;;8.67;7.77;;;14.50;99.90;;;;;;4989418;28;20245;-67
2021/10/20 06:10:16;;;;;;;9.17;7.87;;;14.60;99.90;;;;;;4992297;28;20247;-67
2021/10/20 06:12:46;;;;;;;9.63;8.10;;;14.60;99.90;;;;;;4994267;28;20247;-67
2021/10/20 06:15:15;;;;;;;9.17;8.17;;;14.60;99.90;;;;;;4992990;28;20600;-67
2021/10/20 06:18:04;;;;;;;9.53;8.53;;;14.60;99.90;;;;;;4992960;28;20248;-67
2021/10/20 06:20:32;;;;;;;11.63;7.83;;;14.60;99.90;;;;;;4983017;28;20709;-67
2021/10/20 06:23:01;;;;;;;8.50;7.53;;;14.60;99.90;;;;;;4991645;28;20323;-67
2021/10/20 06:25:29;;;;;;;11.90;8.70;;;14.60;99.90;;;;;;4980485;28;20264;-67
2021/10/20 06:27:59;;;;;;;9.30;7.97;;;14.60;99.90;;;;;;5000708;28;20327;-67
2021/10/20 06:30:27;;;;;;;8.77;7.77;;;14.60;99.90;;;;;;4993469;28;20327;-67
2021/10/20 06:32:55;;;;;;;8.20;7.40;;;14.60;99.90;;;;;;4989479;28;20248;-67
2021/10/20 06:35:23;;;;;;;9.87;7.80;;;14.60;99.90;;;;;;4989681;28;20249;-67
2021/10/20 06:37:53;;;;;;;8.90;7.50;;;14.60;99.90;;;;;;4985282;28;20233;-67
2021/10/20 06:40:22;;;;;;;9.67;7.60;;;14.60;99.90;;;;;;4988421;28;20332;-67
2021/10/20 06:42:50;;;;;;;8.77;7.80;;;14.60;99.90;;;;;;4991937;28;20269;-67
2021/10/20 06:45:20;;;;;;;13.00;7.67;;;14.60;99.90;;;;;;4989806;28;20329;-67
2021/10/20 06:47:48;;;;;;;8.87;7.97;;;14.60;99.90;;;;;;4972732;28;21118;-67
2021/10/20 06:50:17;;;;;;;9.50;7.53;;;14.60;99.90;;;;;;4974973;28;20240;-67
2021/10/20 06:52:45;;;;;;;9.40;8.40;;;14.70;99.90;;;;;;4976405;28;20237;-67
2021/10/20 06:55:14;;;;;;;11.00;7.87;;;14.70;99.90;;;;;;4973042;28;20640;-67
2021/10/20 06:57:42;;;;;;;11.00;7.77;;;14.70;99.90;;;;;;4973959;28;20241;-67
2021/10/20 07:00:12;;;;;;;20.07;7.93;;;14.70;99.90;;;;;;4975120;28;21080;-66
2021/10/20 07:02:41;;;;;;;9.43;7.87;;;14.70;99.90;;;;;;4974336;28;20240;-66
2021/10/20 07:05:10;;;;;;;10.60;7.87;;;14.80;99.90;;;;;;4974421;28;20238;-66
2021/10/20 07:07:38;;;;;;;10.80;7.57;;;14.80;99.90;;;;;;4974346;28;20278;-67
2021/10/20 07:10:08;;;;;;;9.37;8.37;;;14.80;99.90;;;;;;4975715;28;20327;-66
2021/10/20 07:12:37;;;;;;;9.53;8.37;;;14.80;99.90;;;;;;4975618;28;20265;-67
2021/10/20 07:15:06;;;;;;;11.37;8.43;;;14.90;99.90;;;;;;4971652;28;20606;-67
2021/10/20 07:17:35;;;;;;;9.77;8.47;;;14.90;99.90;;;;;;4973996;28;20245;-67
2021/10/20 07:20:06;;;;;;;11.20;8.10;;;14.90;99.90;;;;;;4975500;28;20261;-67
2021/10/20 07:22:38;;;;;;;11.03;8.57;;;14.90;99.90;;;;;;4974796;28;20331;-66
2021/10/20 07:25:09;;;;;;;9.47;8.17;;;14.90;99.90;;;;;;4971812;28;20776;-66
2021/10/20 07:27:37;;;;;;;9.53;8.57;;;14.90;99.90;;;;;;4973647;28;20245;-67
2021/10/20 07:30:07;;;;;;;10.50;9.00;;;15.00;99.90;;;;;;4975368;28;20240;-67
2021/10/20 07:32:37;;;;;;;10.97;9.53;;;15.00;99.90;;;;;;4973662;28;20579;-66
2021/10/20 07:35:07;;;;;;;12.90;9.43;;;15.10;99.90;;;;;;4972188;28;20241;-66
2021/10/20 07:37:36;;;;;;;13.37;9.13;;;15.20;99.90;;;;;;4975276;28;20328;-66
2021/10/20 07:40:06;;;;;;;12.37;10.17;;;15.20;99.90;;;;;;4974775;28;20338;-66
2021/10/20 07:42:36;;;;;;;14.03;9.47;;;15.20;99.90;;;;;;4973847;28;20689;-67
2021/10/20 07:45:06;;;;;;;11.93;10.00;;;15.20;99.90;;;;;;4970773;28;20620;-66
2021/10/20 07:47:35;;;;;;;12.50;9.90;;;15.30;99.90;;;;;;4974221;28;20234;-66
2021/10/20 07:50:06;;;;;;;12.03;9.90;;;15.40;99.90;;;;;;4974339;28;20252;-66
2021/10/20 07:52:35;;;;;;;12.27;10.57;;;15.40;99.90;;;;;;4974094;28;20234;-66
2021/10/20 07:55:06;;;;;;;13.00;10.67;;;15.40;99.90;;;;;;4972444;28;20626;-66
2021/10/20 07:57:35;;;;;;;12.17;10.63;;;15.40;99.90;;;;;;4974894;28;20241;-67
2021/10/20 08:00:06;;;;;;;12.77;10.30;;;15.50;99.90;;;;;;4974987;28;20345;-66
2021/10/20 08:02:34;;;;;;;13.40;10.27;;;15.50;99.90;;;;;;4973661;28;20260;-67
2021/10/20 08:05:03;;;;;;;13.33;10.30;;;15.50;99.90;;;;;;4970361;28;20244;-66
2021/10/20 08:07:33;;;;;;;11.60;9.80;;;15.60;99.90;;;;;;4973660;28;20226;-66
2021/10/20 08:10:01;;;;;;;12.60;11.17;;;15.60;99.90;;;;;;4975012;28;20237;-67
2021/10/20 08:12:30;;;;;;;11.47;10.30;;;15.60;99.90;;;;;;4974655;28;20241;-66
2021/10/20 08:14:58;;;;;;;11.43;10.33;;;15.70;99.90;;;;;;4971685;28;20241;-66
2021/10/20 08:17:26;;;;;;;11.57;10.10;;;15.70;99.90;;;;;;4974467;28;20249;-66
2021/10/20 08:19:55;;;;;;;12.93;10.37;;;15.80;99.90;;;;;;4974906;28;20237;-67
2021/10/20 08:22:23;;;;;;;12.87;10.30;;;15.80;99.90;;;;;;4973207;28;20400;-67
2021/10/20 08:24:53;;;;;;;11.93;10.30;;;15.90;99.90;;;;;;4971557;28;20384;-66
2021/10/20 08:27:22;;;;;;;16.00;10.63;;;16.00;99.90;;;;;;4972789;28;20246;-66
2021/10/20 08:29:51;;;;;;;11.50;10.30;;;16.10;99.90;;;;;;4974331;28;20870;-66
2021/10/20 08:32:22;;;;;;;11.50;10.13;;;16.10;99.90;;;;;;4972901;28;20246;-66
2021/10/20 08:34:50;;;;;;;14.33;10.70;;;16.20;99.90;;;;;;4970040;28;20250;-66
2021/10/20 08:37:18;;;;;;;15.27;10.67;;;16.30;99.90;;;;;;4972956;28;20507;-67
2021/10/20 08:39:48;;;;;;;12.10;10.30;;;16.40;99.90;;;;;;4973463;28;20249;-66
2021/10/20 08:42:17;;;;;;;11.63;9.77;;;16.40;99.90;;;;;;4973351;28;20336;-66
2021/10/20 08:45:05;;;;;;;11.97;10.13;;;16.30;99.90;;;;;;4970133;28;20244;-66
2021/10/20 08:47:34;;;;;;;11.77;10.53;;;16.30;99.90;;;;;;4973515;28;20244;-66
2021/10/20 08:50:04;;;;;;;16.70;10.43;;;16.30;99.90;;;;;;4973850;28;20263;-66
2021/10/20 08:52:32;;;;;;;13.83;10.20;;;16.30;99.90;;;;;;4973467;28;20245;-66
2021/10/20 08:55:01;;;;;;;12.10;10.60;;;16.40;99.90;;;;;;4970528;28;21004;-66
2021/10/20 08:57:30;;;;;;;10.83;9.27;;;16.40;99.90;;;;;;4973289;28;20233;-66
2021/10/20 09:00:05;;;;;;;11.13;10.00;;;16.50;99.90;;;;;;4973434;28;20498;-66
2021/10/20 09:02:37;;;;;;;12.20;9.83;;;16.50;99.90;;;;;;4944762;28;20245;-66
2021/10/20 09:05:12;;;;;;;11.73;10.23;;;16.50;99.90;;;;;;4972717;28;20241;-66
2021/10/20 09:07:41;;;;;;;14.03;10.00;;;16.50;99.90;;;;;;4973472;28;20620;-66
2021/10/20 09:10:10;;;;;;;11.20;10.03;;;16.50;99.90;;;;;;4973218;28;20336;-66
2021/10/20 09:12:41;;;;;;;14.83;10.53;;;16.50;99.90;;;;;;4972715;28;20233;-66
2021/10/20 09:15:11;;;;;;;11.40;10.20;;;16.50;99.90;;;;;;4970416;28;20245;-66
2021/10/20 09:17:50;;;;;;;12.13;10.13;;;16.60;99.90;;;;;;4980580;28;20246;-66
2021/10/20 09:20:25;;;;;;;12.20;10.67;;;16.70;99.90;;;;;;4985080;28;20237;-67
2021/10/20 09:22:59;;;;;;;14.53;10.53;;;16.60;99.90;;;;;;4982443;28;20265;-67
2021/10/20 09:25:34;;;;;;;11.77;9.90;;;16.60;99.90;;;;;;4982973;28;20696;-67
2021/10/20 09:28:05;;;;;;;13.47;10.53;;;16.50;99.90;;;;;;4995150;28;20241;-66
2021/10/20 09:30:34;;;;;;;13.47;10.87;;;16.50;99.90;;;;;;4992041;28;20727;-67
2021/10/20 09:33:02;;;;;;;10.87;9.77;;;16.40;99.90;;;;;;4993019;28;20240;-67
2021/10/20 09:35:33;;;;;;;13.20;9.33;;;16.40;99.90;;;;;;4980992;28;20237;-66
2021/10/20 09:38:02;;;;;;;12.77;10.00;;;16.30;99.90;;;;;;4995882;28;20320;-67
2021/10/20 09:40:41;;;;;;;13.83;9.50;;;16.30;99.90;;;;;;4981465;28;20265;-67
2021/10/20 09:43:12;;;;;;;11.50;10.30;;;16.30;99.90;;;;;;4991095;28;20237;-67
2021/10/20 09:45:43;;;;;;;13.70;9.20;;;16.40;99.90;;;;;;4994907;28;20576;-67
2021/10/20 09:48:19;;;;;;;10.80;9.70;;;16.40;99.90;;;;;;4989658;28;20233;-66
2021/10/20 09:50:59;;;;;;;10.87;9.77;;;16.40;99.90;;;;;;4995220;28;20333;-67
2021/10/20 09:53:29;;;;;;;10.13;9.13;;;16.40;99.90;;;;;;4993697;28;20257;-67
2021/10/20 09:56:00;;;;;;;17.43;9.50;;;16.50;99.90;;;;;;4994522;28;20239;-66
2021/10/20 09:58:32;;;;;;;10.90;9.30;;;16.60;99.90;;;;;;4996066;28;20244;-67
2021/10/20 10:01:01;;;;;;;10.83;9.40;;;16.60;99.90;;;;;;4993272;28;20242;-67
2021/10/20 10:03:31;;;;;;;10.73;9.57;;;16.60;99.90;;;;;;4993927;28;20226;-67
2021/10/20 10:06:00;;;;;;;11.07;9.47;;;16.70;99.90;;;;;;5001057;28;20325;-67
2021/10/20 10:08:28;;;;;;;11.03;9.10;;;16.60;99.90;;;;;;4994655;28;20596;-67
2021/10/20 10:10:59;;;;;;;10.90;9.73;;;16.50;99.90;;;;;;4996022;28;20230;-66
2021/10/20 10:13:31;;;;;;;10.93;9.83;;;16.40;99.90;;;;;;4994628;28;20240;-67
2021/10/20 10:16:01;;;;;;;12.53;10.07;;;16.30;99.90;;;;;;4976524;28;20761;-67
2021/10/20 10:18:37;;;;;;;11.07;9.83;;;16.30;99.90;;;;;;4987316;28;20242;-66
2021/10/20 10:21:31;;;;;;;10.60;9.50;;;16.20;99.90;;;;;;4994043;28;20292;-67
2021/10/20 10:24:01;;;;;;;11.90;9.20;;;16.10;99.90;;;;;;4997206;28;20639;-67
2021/10/20 10:26:29;;;;;;;11.33;8.97;;;16.10;99.90;;;;;;4987659;28;20237;-67
2021/10/20 10:29:10;;;;;;;10.37;9.20;;;16.20;99.90;;;;;;4991375;28;20270;-66
2021/10/20 10:31:42;;;;;;;10.87;9.10;;;16.20;99.90;;;;;;4986403;28;20292;-67
2021/10/20 10:34:19;;;;;;;12.40;10.27;;;16.10;99.90;;;;;;4998775;28;20714;-67
2021/10/20 10:36:52;;;;;;;11.37;9.07;;;16.00;99.90;;;;;;4993811;28;20316;-67
2021/10/20 10:39:20;;;;;;;11.17;9.53;;;16.00;99.90;;;;;;4998845;28;20308;-67
2021/10/20 10:41:49;;;;;;;10.87;9.50;;;16.00;99.90;;;;;;4993474;28;20328;-66
2021/10/20 10:44:20;;;;;;;11.47;9.27;;;15.90;99.90;;;;;;4990356;28;20316;-67
2021/10/20 10:47:19;;;;;;;10.17;9.07;;;15.90;99.90;;;;;;4974118;28;20268;-67
2021/10/20 10:49:54;;;;;;;12.77;9.93;;;15.90;99.90;;;;;;4957608;28;20261;-67
2021/10/20 10:52:33;;;;;;;11.07;9.13;;;16.00;99.90;;;;;;4977945;28;20641;-67
2021/10/20 10:55:17;;;;;;;11.20;9.40;;;16.10;99.90;;;;;;4959731;28;20237;-67
2021/10/20 10:57:54;;;;;;;12.40;9.17;;;16.10;99.90;;;;;;4978283;28;20296;-67
2021/10/20 11:00:46;;;;;;;12.20;9.63;;;16.00;99.90;;;;;;4970900;28;21488;-67
2021/10/20 11:03:21;;;;;;;9.80;8.80;;;16.00;99.90;;;;;;4968330;28;20273;-67
2021/10/20 11:05:53;;;;;;;11.33;9.17;;;16.10;99.90;;;;;;4975016;28;20689;-67
2021/10/20 11:08:22;;;;;;;10.87;8.70;;;16.10;99.90;;;;;;4974274;28;20269;-67
2021/10/20 11:10:52;;;;;;;11.03;9.40;;;16.20;99.90;;;;;;4975755;28;20320;-67
2021/10/20 11:13:20;;;;;;;10.43;9.33;;;16.30;99.90;;;;;;4973594;28;20241;-67
2021/10/20 11:15:50;;;;;;;10.87;8.50;;;16.40;99.90;;;;;;4975520;28;20645;-67
2021/10/20 11:18:21;;;;;;;9.70;8.40;;;16.40;99.90;;;;;;4975288;28;20273;-67
2021/10/20 11:20:49;;;;;;;10.53;8.67;;;16.50;99.90;;;;;;4974680;28;20819;-67
2021/10/20 11:23:19;;;;;;;9.73;8.77;;;16.60;99.90;;;;;;4974683;28;20253;-67
2021/10/20 11:25:48;;;;;;;9.50;8.00;;;16.70;99.90;;;;;;4974676;28;20333;-67
2021/10/20 11:28:17;;;;;;;12.40;8.23;;;16.80;99.90;;;;;;4976246;28;20788;-67
2021/10/20 11:30:46;;;;;;;9.03;8.10;;;17.00;99.90;;;;;;4976645;28;20609;-67
2021/10/20 11:33:17;;;;;;;8.23;7.33;;;17.00;99.90;;;;;;4977147;28;20288;-67
2021/10/20 11:35:47;;;;;;;8.67;7.60;;;17.00;99.90;;;;;;4974113;28;20677;-67
2021/10/20 11:38:16;;;;;;;10.73;7.83;;;17.00;99.90;;;;;;4974911;28;20241;-67
2021/10/20 11:40:48;;;;;;;9.63;8.10;;;16.90;99.90;;;;;;4976310;28;20265;-67
2021/10/20 11:43:18;;;;;;;9.17;8.27;;;16.90;99.90;;;;;;4974725;28;20253;-67
2021/10/20 11:45:47;;;;;;;10.50;8.60;;;17.00;99.90;;;;;;4976509;28;20237;-68
2021/10/20 11:48:19;;;;;;;8.97;7.77;;;16.90;99.90;;;;;;4976796;28;20245;-67
2021/10/20 11:50:52;;;;;;;9.30;8.17;;;16.90;99.90;;;;;;4977086;28;20241;-67
2021/10/20 11:53:20;;;;;;;9.63;8.63;;;17.00;99.90;;;;;;4974682;28;20243;-67
2021/10/20 11:55:52;;;;;;;8.97;8.00;;;17.00;99.90;;;;;;4975048;28;20336;-67
2021/10/20 11:58:22;;;;;;;9.23;8.33;;;17.00;99.90;;;;;;4976990;28;20320;-67
2021/10/20 12:00:55;;;;;;;9.43;8.43;;;17.00;99.90;;;;;;4977366;28;20745;-67
2021/10/20 12:03:33;;;;;;;11.90;8.83;;;16.90;99.90;;;;;;4974125;28;20245;-67
2021/10/20 12:06:03;;;;;;;10.20;9.20;;;16.90;99.90;;;;;;4976562;28;20787;-67
2021/10/20 12:08:32;;;;;;;10.27;9.27;;;16.80;99.90;;;;;;4977693;28;20241;-67
2021/10/20 12:11:02;;;;;;;10.20;9.20;;;16.70;99.90;;;;;;4978206;28;20245;-67
2021/10/20 12:13:30;;;;;;;10.80;9.47;;;16.70;99.90;;;;;;4974018;28;20324;-67
2021/10/20 12:15:58;;;;;;;10.57;9.47;;;16.70;99.90;;;;;;4975362;28;20292;-67
2021/10/20 12:18:27;;;;;;;11.60;10.00;;;16.50;99.90;;;;;;4977270;28;20237;-66
2021/10/20 12:21:01;;;;;;;10.67;9.23;;;16.50;99.90;;;;;;4976731;28;20797;-67
2021/10/20 12:23:33;;;;;;;10.27;9.27;;;16.60;99.90;;;;;;4974107;28;20299;-66
2021/10/20 12:26:02;;;;;;;11.40;9.27;;;16.60;99.90;;;;;;4976618;28;20304;-67
2021/10/20 12:28:30;;;;;;;10.97;9.87;;;16.70;99.90;;;;;;4975802;28;20904;-67
2021/10/20 12:31:08;;;;;;;10.73;9.37;;;16.90;99.90;;;;;;4976648;28;20787;-67
2021/10/20 12:33:39;;;;;;;11.57;8.83;;;17.10;99.90;;;;;;4970981;28;20244;-67
2021/10/20 12:36:12;;;;;;;13.00;9.43;;;17.10;99.90;;;;;;4973727;28;20327;-67
2021/10/20 12:38:42;;;;;;;10.53;9.43;;;17.20;99.90;;;;;;4974867;28;20254;-67
2021/10/20 12:41:12;;;;;;;10.73;9.53;;;17.10;99.90;;;;;;4975873;28;20238;-67
2021/10/20 12:43:40;;;;;;;10.57;9.43;;;17.10;99.90;;;;;;4972171;28;20249;-67
2021/10/20 12:46:29;;;;;;;10.27;9.27;;;17.10;99.90;;;;;;4976875;28;20303;-66
2021/10/20 12:48:59;;;;;;;11.30;9.67;;;17.20;99.90;;;;;;4975912;28;20566;-66